sensor_id;sensor_type;location;lat;lon;timestamp;temperature;humidity
43607;DHT22;29197;44.788;10.366;2023-07-28T00:02:46;23.50;99.90
43607;DHT22;29197;44.788;10.366;2023-07-28T00:05:36;23.40;99.90
43607;DHT22;29197;44.788;10.366;2023-07-28T00:08:26;23.30;99.90
43607;DHT22;29197;44.788;10.366;2023-07-28T00:11:15;23.30;99.90
43607;DHT22;29197;44.788;10.366;2023-07-28T00:14:04;23.10;99.90
43607;DHT22;29197;44.788;10.366;2023-07-28T00:16:53;23.30;99.90
43607;DHT22;29197;44.788;10.366;2023-07-28T00:19:41;23.40;99.90
43607;DHT22;29197;44.788;10.366;2023-07-28T00:22:30;23.50;99.90
43607;DHT22;29197;44.788;10.366;2023-07-28T00:25:20;23.60;99.90
43607;DHT22;29197;44.788;10.366;2023-07-28T00:28:09;23.60;99.90
43607;DHT22;29197;44.788;10.366;2023-07-28T00:30:58;23.60;99.90
43607;DHT22;29197;44.788;10.366;2023-07-28T00:33:46;23.60;99.90
43607;DHT22;29197;44.788;10.366;2023-07-28T00:36:35;23.60;99.90
43607;DHT22;29197;44.788;10.366;2023-07-28T00:39:24;23.40;99.90
43607;DHT22;29197;44.788;10.366;2023-07-28T00:42:14;23.40;99.90
43607;DHT22;29197;44.788;10.366;2023-07-28T00:45:03;23.30;99.90
43607;DHT22;29197;44.788;10.366;2023-07-28T00:47:52;23.10;99.90
43607;DHT22;29197;44.788;10.366;2023-07-28T00:50:41;23.00;99.90
43607;DHT22;29197;44.788;10.366;2023-07-28T00:53:30;23.10;99.90
43607;DHT22;29197;44.788;10.366;2023-07-28T00:56:19;23.20;99.90
43607;DHT22;29197;44.788;10.366;2023-07-28T00:59:10;23.40;99.90
43607;DHT22;29197;44.788;10.366;2023-07-28T01:01:58;23.40;99.90
43607;DHT22;29197;44.788;10.366;2023-07-28T01:04:48;23.10;99.90
43607;DHT22;29197;44.788;10.366;2023-07-28T01:07:41;22.90;99.90
43607;DHT22;29197;44.788;10.366;2023-07-28T01:10:32;22.50;99.90
43607;DHT22;29197;44.788;10.366;2023-07-28T01:13:21;22.50;99.90
43607;DHT22;29197;44.788;10.366;2023-07-28T01:16:11;22.50;99.90
43607;DHT22;29197;44.788;10.366;2023-07-28T01:18:59;22.70;99.90
43607;DHT22;29197;44.788;10.366;2023-07-28T01:22:02;22.60;99.90
43607;DHT22;29197;44.788;10.366;2023-07-28T01:25:03;22.80;99.90
43607;DHT22;29197;44.788;10.366;2023-07-28T01:27:56;22.90;99.90
43607;DHT22;29197;44.788;10.366;2023-07-28T01:30:46;23.00;99.90
43607;DHT22;29197;44.788;10.366;2023-07-28T01:33:35;23.10;99.90
43607;DHT22;29197;44.788;10.366;2023-07-28T01:36:23;23.10;99.90
43607;DHT22;29197;44.788;10.366;2023-07-28T01:39:12;23.00;99.90
43607;DHT22;29197;44.788;10.366;2023-07-28T01:42:01;23.00;99.90
43607;DHT22;29197;44.788;10.366;2023-07-28T01:44:51;23.10;99.90
43607;DHT22;29197;44.788;10.366;2023-07-28T01:47:40;22.60;99.90
43607;DHT22;29197;44.788;10.366;2023-07-28T01:50:28;22.60;99.90
43607;DHT22;29197;44.788;10.366;2023-07-28T01:53:17;22.70;99.90
43607;DHT22;29197;44.788;10.366;2023-07-28T01:56:06;22.80;99.90
43607;DHT22;29197;44.788;10.366;2023-07-28T01:58:54;22.90;99.90
43607;DHT22;29197;44.788;10.366;2023-07-28T02:01:44;22.70;99.90
43607;DHT22;29197;44.788;10.366;2023-07-28T02:04:33;22.60;99.90
43607;DHT22;29197;44.788;10.366;2023-07-28T02:07:21;22.60;99.90
43607;DHT22;29197;44.788;10.366;2023-07-28T02:10:10;22.40;99.90
43607;DHT22;29197;44.788;10.366;2023-07-28T02:12:58;22.20;99.90
43607;DHT22;29197;44.788;10.366;2023-07-28T02:15:47;22.10;99.90
43607;DHT22;29197;44.788;10.366;2023-07-28T02:18:37;22.10;99.90
43607;DHT22;29197;44.788;10.366;2023-07-28T02:21:25;22.30;99.90
43607;DHT22;29197;44.788;10.366;2023-07-28T02:24:16;22.30;99.90
43607;DHT22;29197;44.788;10.366;2023-07-28T02:27:05;22.50;99.90
43607;DHT22;29197;44.788;10.366;2023-07-28T02:29:54;22.50;99.90
43607;DHT22;29197;44.788;10.366;2023-07-28T02:32:42;22.50;99.90
43607;DHT22;29197;44.788;10.366;2023-07-28T02:35:32;22.20;99.90
43607;DHT22;29197;44.788;10.366;2023-07-28T02:38:22;22.20;99.90
43607;DHT22;29197;44.788;10.366;2023-07-28T02:41:10;22.30;99.90
43607;DHT22;29197;44.788;10.366;2023-07-28T02:43:59;22.30;99.90
43607;DHT22;29197;44.788;10.366;2023-07-28T02:46:47;22.20;99.90
43607;DHT22;29197;44.788;10.366;2023-07-28T02:49:36;22.30;99.90
43607;DHT22;29197;44.788;10.366;2023-07-28T02:52:26;22.50;99.90
43607;DHT22;29197;44.788;10.366;2023-07-28T02:55:14;22.50;99.90
43607;DHT22;29197;44.788;10.366;2023-07-28T02:58:03;22.50;99.90
43607;DHT22;29197;44.788;10.366;2023-07-28T03:00:52;22.50;99.90
43607;DHT22;29197;44.788;10.366;2023-07-28T03:03:40;22.60;99.90
43607;DHT22;29197;44.788;10.366;2023-07-28T03:06:29;22.80;99.90
43607;DHT22;29197;44.788;10.366;2023-07-28T03:09:19;22.90;99.90
43607;DHT22;29197;44.788;10.366;2023-07-28T03:12:08;23.10;99.90
43607;DHT22;29197;44.788;10.366;2023-07-28T03:14:57;23.10;99.90
43607;DHT22;29197;44.788;10.366;2023-07-28T03:17:45;23.20;99.90
43607;DHT22;29197;44.788;10.366;2023-07-28T03:20:34;23.30;99.90
43607;DHT22;29197;44.788;10.366;2023-07-28T03:23:23;23.30;99.90
43607;DHT22;29197;44.788;10.366;2023-07-28T03:26:12;23.40;99.90
43607;DHT22;29197;44.788;10.366;2023-07-28T03:29:01;23.40;99.90
43607;DHT22;29197;44.788;10.366;2023-07-28T03:31:50;23.40;99.90
43607;DHT22;29197;44.788;10.366;2023-07-28T03:34:38;23.30;99.90
43607;DHT22;29197;44.788;10.366;2023-07-28T03:37:27;23.30;99.90
43607;DHT22;29197;44.788;10.366;2023-07-28T03:40:16;23.30;99.90
43607;DHT22;29197;44.788;10.366;2023-07-28T03:43:05;23.30;99.90
43607;DHT22;29197;44.788;10.366;2023-07-28T03:45:55;23.30;99.90
43607;DHT22;29197;44.788;10.366;2023-07-28T03:48:43;23.30;99.90
43607;DHT22;29197;44.788;10.366;2023-07-28T03:51:32;23.30;99.90
43607;DHT22;29197;44.788;10.366;2023-07-28T03:54:20;23.20;99.90
43607;DHT22;29197;44.788;10.366;2023-07-28T03:57:09;23.20;99.90
43607;DHT22;29197;44.788;10.366;2023-07-28T03:59:59;23.20;99.90
43607;DHT22;29197;44.788;10.366;2023-07-28T04:02:48;23.20;99.90
43607;DHT22;29197;44.788;10.366;2023-07-28T04:05:36;23.10;99.90
43607;DHT22;29197;44.788;10.366;2023-07-28T04:08:25;23.10;99.90
43607;DHT22;29197;44.788;10.366;2023-07-28T04:11:14;23.20;99.90
43607;DHT22;29197;44.788;10.366;2023-07-28T04:14:02;23.20;99.90
43607;DHT22;29197;44.788;10.366;2023-07-28T04:16:52;23.20;99.90
43607;DHT22;29197;44.788;10.366;2023-07-28T04:19:41;23.10;99.90
43607;DHT22;29197;44.788;10.366;2023-07-28T04:22:29;23.10;99.90
43607;DHT22;29197;44.788;10.366;2023-07-28T04:25:18;23.10;99.90
43607;DHT22;29197;44.788;10.366;2023-07-28T04:28:06;23.10;99.90
43607;DHT22;29197;44.788;10.366;2023-07-28T04:30:56;23.50;99.90
43607;DHT22;29197;44.788;10.366;2023-07-28T04:33:45;23.20;99.90
43607;DHT22;29197;44.788;10.366;2023-07-28T04:36:34;23.20;99.90
43607;DHT22;29197;44.788;10.366;2023-07-28T04:39:23;23.20;99.90
43607;DHT22;29197;44.788;10.366;2023-07-28T04:42:11;23.20;99.90
43607;DHT22;29197;44.788;10.366;2023-07-28T04:45:00;23.20;99.90
43607;DHT22;29197;44.788;10.366;2023-07-28T04:47:49;23.20;99.90
43607;DHT22;29197;44.788;10.366;2023-07-28T04:50:39;23.20;99.90
43607;DHT22;29197;44.788;10.366;2023-07-28T04:53:27;22.30;99.90
43607;DHT22;29197;44.788;10.366;2023-07-28T04:56:16;23.10;99.90
43607;DHT22;29197;44.788;10.366;2023-07-28T04:59:04;23.10;99.90
43607;DHT22;29197;44.788;10.366;2023-07-28T05:01:53;22.90;99.90
43607;DHT22;29197;44.788;10.366;2023-07-28T05:04:41;22.70;99.90
43607;DHT22;29197;44.788;10.366;2023-07-28T05:07:31;22.80;99.90
43607;DHT22;29197;44.788;10.366;2023-07-28T05:10:20;22.80;99.90
43607;DHT22;29197;44.788;10.366;2023-07-28T05:13:09;22.90;99.90
43607;DHT22;29197;44.788;10.366;2023-07-28T05:15:57;22.90;99.90
43607;DHT22;29197;44.788;10.366;2023-07-28T05:18:47;22.70;99.90
43607;DHT22;29197;44.788;10.366;2023-07-28T05:21:35;22.70;99.90
43607;DHT22;29197;44.788;10.366;2023-07-28T05:24:25;22.80;99.90
43607;DHT22;29197;44.788;10.366;2023-07-28T05:27:14;22.80;99.90
43607;DHT22;29197;44.788;10.366;2023-07-28T05:30:04;22.80;99.90
43607;DHT22;29197;44.788;10.366;2023-07-28T05:32:53;22.80;99.90
43607;DHT22;29197;44.788;10.366;2023-07-28T05:35:42;22.80;99.90
43607;DHT22;29197;44.788;10.366;2023-07-28T05:38:31;22.80;99.90
43607;DHT22;29197;44.788;10.366;2023-07-28T05:41:21;22.60;99.90
43607;DHT22;29197;44.788;10.366;2023-07-28T05:44:09;22.60;99.90
43607;DHT22;29197;44.788;10.366;2023-07-28T05:46:58;22.70;99.90
43607;DHT22;29197;44.788;10.366;2023-07-28T05:49:46;22.80;99.90
43607;DHT22;29197;44.788;10.366;2023-07-28T05:52:35;22.70;99.90
43607;DHT22;29197;44.788;10.366;2023-07-28T05:55:23;22.60;99.90
43607;DHT22;29197;44.788;10.366;2023-07-28T05:58:16;22.70;99.90
43607;DHT22;29197;44.788;10.366;2023-07-28T06:01:05;23.00;99.90
43607;DHT22;29197;44.788;10.366;2023-07-28T06:03:53;22.90;99.90
43607;DHT22;29197;44.788;10.366;2023-07-28T06:06:47;22.80;99.90
43607;DHT22;29197;44.788;10.366;2023-07-28T06:09:35;22.90;99.90
43607;DHT22;29197;44.788;10.366;2023-07-28T06:12:24;22.60;99.90
43607;DHT22;29197;44.788;10.366;2023-07-28T06:15:14;22.60;99.90
43607;DHT22;29197;44.788;10.366;2023-07-28T06:18:03;22.50;99.90
43607;DHT22;29197;44.788;10.366;2023-07-28T06:20:52;22.50;99.90
43607;DHT22;29197;44.788;10.366;2023-07-28T06:23:40;22.60;99.90
43607;DHT22;29197;44.788;10.366;2023-07-28T06:26:29;22.70;99.90
43607;DHT22;29197;44.788;10.366;2023-07-28T06:29:17;22.80;99.90
43607;DHT22;29197;44.788;10.366;2023-07-28T06:32:08;22.70;99.90
43607;DHT22;29197;44.788;10.366;2023-07-28T06:34:56;22.90;99.90
43607;DHT22;29197;44.788;10.366;2023-07-28T06:37:45;23.10;99.90
43607;DHT22;29197;44.788;10.366;2023-07-28T06:40:34;23.20;99.90
43607;DHT22;29197;44.788;10.366;2023-07-28T06:43:22;23.40;99.90
43607;DHT22;29197;44.788;10.366;2023-07-28T06:46:11;23.30;99.90
43607;DHT22;29197;44.788;10.366;2023-07-28T06:49:01;23.30;99.90
43607;DHT22;29197;44.788;10.366;2023-07-28T06:51:50;23.40;99.90
43607;DHT22;29197;44.788;10.366;2023-07-28T06:54:39;23.60;99.90
43607;DHT22;29197;44.788;10.366;2023-07-28T06:57:28;23.70;99.90
43607;DHT22;29197;44.788;10.366;2023-07-28T07:00:17;23.90;99.90
43607;DHT22;29197;44.788;10.366;2023-07-28T07:03:06;24.00;99.90
43607;DHT22;29197;44.788;10.366;2023-07-28T07:05:56;24.10;99.90
43607;DHT22;29197;44.788;10.366;2023-07-28T07:08:44;24.10;99.90
43607;DHT22;29197;44.788;10.366;2023-07-28T07:11:33;24.20;99.90
43607;DHT22;29197;44.788;10.366;2023-07-28T07:14:22;24.20;99.90
43607;DHT22;29197;44.788;10.366;2023-07-28T07:17:10;24.40;99.90
43607;DHT22;29197;44.788;10.366;2023-07-28T07:19:59;24.50;99.90
43607;DHT22;29197;44.788;10.366;2023-07-28T07:22:49;24.60;99.90
43607;DHT22;29197;44.788;10.366;2023-07-28T07:25:38;24.70;99.90
43607;DHT22;29197;44.788;10.366;2023-07-28T07:28:26;24.80;99.90
43607;DHT22;29197;44.788;10.366;2023-07-28T07:31:15;25.00;99.90
43607;DHT22;29197;44.788;10.366;2023-07-28T07:34:04;25.20;99.90
43607;DHT22;29197;44.788;10.366;2023-07-28T07:36:53;25.40;99.90
43607;DHT22;29197;44.788;10.366;2023-07-28T07:39:45;25.70;99.90
43607;DHT22;29197;44.788;10.366;2023-07-28T07:45:29;26.20;99.90
43607;DHT22;29197;44.788;10.366;2023-07-28T07:48:18;26.40;99.90
43607;DHT22;29197;44.788;10.366;2023-07-28T07:51:07;26.20;99.90
43607;DHT22;29197;44.788;10.366;2023-07-28T07:53:56;26.20;99.90
43607;DHT22;29197;44.788;10.366;2023-07-28T07:56:46;26.10;99.90
43607;DHT22;29197;44.788;10.366;2023-07-28T07:59:35;25.80;99.90
43607;DHT22;29197;44.788;10.366;2023-07-28T08:02:23;25.70;99.90
43607;DHT22;29197;44.788;10.366;2023-07-28T08:05:12;25.80;99.90
43607;DHT22;29197;44.788;10.366;2023-07-28T08:08:01;26.00;99.90
43607;DHT22;29197;44.788;10.366;2023-07-28T08:10:50;26.00;99.90
43607;DHT22;29197;44.788;10.366;2023-07-28T08:13:40;26.10;99.90
43607;DHT22;29197;44.788;10.366;2023-07-28T08:16:29;26.10;99.90
43607;DHT22;29197;44.788;10.366;2023-07-28T08:19:17;25.80;99.90
43607;DHT22;29197;44.788;10.366;2023-07-28T08:22:06;25.80;99.90
43607;DHT22;29197;44.788;10.366;2023-07-28T08:24:55;25.80;99.90
43607;DHT22;29197;44.788;10.366;2023-07-28T08:27:43;25.80;99.90
43607;DHT22;29197;44.788;10.366;2023-07-28T08:30:33;25.80;99.90
43607;DHT22;29197;44.788;10.366;2023-07-28T08:33:22;26.00;99.90
43607;DHT22;29197;44.788;10.366;2023-07-28T08:36:11;26.10;99.90
43607;DHT22;29197;44.788;10.366;2023-07-28T08:38:59;26.10;99.90
43607;DHT22;29197;44.788;10.366;2023-07-28T08:44:36;26.40;99.90
43607;DHT22;29197;44.788;10.366;2023-07-28T08:47:27;26.50;99.90
43607;DHT22;29197;44.788;10.366;2023-07-28T08:50:16;26.60;99.90
43607;DHT22;29197;44.788;10.366;2023-07-28T08:53:04;26.60;99.90
43607;DHT22;29197;44.788;10.366;2023-07-28T08:55:53;26.60;99.90
43607;DHT22;29197;44.788;10.366;2023-07-28T08:58:41;26.70;99.90
43607;DHT22;29197;44.788;10.366;2023-07-28T09:01:31;26.70;99.90
43607;DHT22;29197;44.788;10.366;2023-07-28T09:04:21;26.60;99.90
43607;DHT22;29197;44.788;10.366;2023-07-28T09:07:10;26.80;99.90
43607;DHT22;29197;44.788;10.366;2023-07-28T09:10:00;26.90;99.90
43607;DHT22;29197;44.788;10.366;2023-07-28T09:12:49;27.00;99.90
43607;DHT22;29197;44.788;10.366;2023-07-28T09:15:38;27.10;99.90
43607;DHT22;29197;44.788;10.366;2023-07-28T09:18:27;27.30;99.90
43607;DHT22;29197;44.788;10.366;2023-07-28T09:21:18;27.50;99.90
43607;DHT22;29197;44.788;10.366;2023-07-28T09:24:09;27.50;99.90
43607;DHT22;29197;44.788;10.366;2023-07-28T09:26:59;27.40;99.90
43607;DHT22;29197;44.788;10.366;2023-07-28T09:29:49;27.50;99.90
43607;DHT22;29197;44.788;10.366;2023-07-28T09:32:38;27.50;99.90
43607;DHT22;29197;44.788;10.366;2023-07-28T09:35:26;27.50;99.90
43607;DHT22;29197;44.788;10.366;2023-07-28T09:38:16;27.50;99.90
43607;DHT22;29197;44.788;10.366;2023-07-28T09:41:07;27.60;99.90
43607;DHT22;29197;44.788;10.366;2023-07-28T09:43:57;27.80;99.90
43607;DHT22;29197;44.788;10.366;2023-07-28T09:46:50;27.80;99.90
43607;DHT22;29197;44.788;10.366;2023-07-28T09:49:41;27.80;99.90
43607;DHT22;29197;44.788;10.366;2023-07-28T09:52:38;27.80;99.90
43607;DHT22;29197;44.788;10.366;2023-07-28T09:55:29;27.90;99.90
43607;DHT22;29197;44.788;10.366;2023-07-28T09:58:20;28.00;99.90
43607;DHT22;29197;44.788;10.366;2023-07-28T10:01:10;28.10;99.90
43607;DHT22;29197;44.788;10.366;2023-07-28T10:03:59;28.10;99.90
43607;DHT22;29197;44.788;10.366;2023-07-28T10:06:48;28.10;99.90
43607;DHT22;29197;44.788;10.366;2023-07-28T10:09:37;28.20;99.90
43607;DHT22;29197;44.788;10.366;2023-07-28T10:12:28;28.20;99.90
43607;DHT22;29197;44.788;10.366;2023-07-28T10:15:18;28.40;99.90
43607;DHT22;29197;44.788;10.366;2023-07-28T10:18:07;28.40;99.90
43607;DHT22;29197;44.788;10.366;2023-07-28T10:21:04;28.60;99.90
43607;DHT22;29197;44.788;10.366;2023-07-28T10:23:54;28.60;99.90
43607;DHT22;29197;44.788;10.366;2023-07-28T10:26:43;28.70;99.90
43607;DHT22;29197;44.788;10.366;2023-07-28T10:29:37;28.90;99.90
43607;DHT22;29197;44.788;10.366;2023-07-28T10:32:26;28.90;99.90
43607;DHT22;29197;44.788;10.366;2023-07-28T10:38:32;29.10;99.90
43607;DHT22;29197;44.788;10.366;2023-07-28T10:41:21;29.20;99.90
43607;DHT22;29197;44.788;10.366;2023-07-28T10:44:10;29.20;99.90
43607;DHT22;29197;44.788;10.366;2023-07-28T10:47:00;29.30;99.90
43607;DHT22;29197;44.788;10.366;2023-07-28T10:49:49;29.40;99.90
43607;DHT22;29197;44.788;10.366;2023-07-28T10:52:39;29.40;99.90
43607;DHT22;29197;44.788;10.366;2023-07-28T10:58:17;29.70;99.90
43607;DHT22;29197;44.788;10.366;2023-07-28T11:01:07;29.60;99.90
43607;DHT22;29197;44.788;10.366;2023-07-28T11:03:57;29.50;99.90
43607;DHT22;29197;44.788;10.366;2023-07-28T11:06:53;29.60;99.90
43607;DHT22;29197;44.788;10.366;2023-07-28T11:09:43;29.70;99.90
43607;DHT22;29197;44.788;10.366;2023-07-28T11:12:31;29.90;99.90
43607;DHT22;29197;44.788;10.366;2023-07-28T11:15:20;30.10;99.90
43607;DHT22;29197;44.788;10.366;2023-07-28T11:18:09;30.30;99.90
43607;DHT22;29197;44.788;10.366;2023-07-28T11:20:59;30.40;99.90
43607;DHT22;29197;44.788;10.366;2023-07-28T11:26:38;30.70;99.90
43607;DHT22;29197;44.788;10.366;2023-07-28T11:29:28;30.80;99.90
43607;DHT22;29197;44.788;10.366;2023-07-28T11:35:06;31.00;99.90
43607;DHT22;29197;44.788;10.366;2023-07-28T11:37:57;31.20;99.90
43607;DHT22;29197;44.788;10.366;2023-07-28T11:43:35;31.50;99.90
43607;DHT22;29197;44.788;10.366;2023-07-28T11:46:34;31.70;99.90
43607;DHT22;29197;44.788;10.366;2023-07-28T11:49:23;31.80;99.90
43607;DHT22;29197;44.788;10.366;2023-07-28T11:52:12;31.90;99.90
43607;DHT22;29197;44.788;10.366;2023-07-28T11:55:02;32.00;99.90
43607;DHT22;29197;44.788;10.366;2023-07-28T11:57:53;32.10;99.90
43607;DHT22;29197;44.788;10.366;2023-07-28T12:00:43;32.10;99.90
43607;DHT22;29197;44.788;10.366;2023-07-28T12:03:32;32.30;99.90
43607;DHT22;29197;44.788;10.366;2023-07-28T12:09:12;32.50;99.90
43607;DHT22;29197;44.788;10.366;2023-07-28T12:14:51;32.90;99.90
43607;DHT22;29197;44.788;10.366;2023-07-28T12:18:07;33.00;99.90
43607;DHT22;29197;44.788;10.366;2023-07-28T12:20:59;33.10;99.90
43607;DHT22;29197;44.788;10.366;2023-07-28T12:23:48;33.30;99.90
43607;DHT22;29197;44.788;10.366;2023-07-28T12:26:39;33.30;99.90
43607;DHT22;29197;44.788;10.366;2023-07-28T12:29:29;33.50;99.90
43607;DHT22;29197;44.788;10.366;2023-07-28T12:35:22;33.60;99.90
43607;DHT22;29197;44.788;10.366;2023-07-28T12:38:31;33.60;99.90
43607;DHT22;29197;44.788;10.366;2023-07-28T12:41:22;33.70;99.90
43607;DHT22;29197;44.788;10.366;2023-07-28T12:44:29;33.70;99.90
43607;DHT22;29197;44.788;10.366;2023-07-28T12:47:21;33.70;99.90
43607;DHT22;29197;44.788;10.366;2023-07-28T12:50:10;33.80;99.90
43607;DHT22;29197;44.788;10.366;2023-07-28T12:56:02;33.90;99.90
43607;DHT22;29197;44.788;10.366;2023-07-28T12:58:50;34.00;99.60
43607;DHT22;29197;44.788;10.366;2023-07-28T13:01:43;34.00;99.90
43607;DHT22;29197;44.788;10.366;2023-07-28T13:04:32;34.00;99.90
43607;DHT22;29197;44.788;10.366;2023-07-28T13:07:21;34.00;99.90
43607;DHT22;29197;44.788;10.366;2023-07-28T13:10:13;34.10;99.90
43607;DHT22;29197;44.788;10.366;2023-07-28T13:13:04;34.10;99.90
43607;DHT22;29197;44.788;10.366;2023-07-28T13:16:00;34.20;99.90
43607;DHT22;29197;44.788;10.366;2023-07-28T13:18:50;34.10;99.90
43607;DHT22;29197;44.788;10.366;2023-07-28T13:21:38;33.90;99.90
43607;DHT22;29197;44.788;10.366;2023-07-28T13:27:15;33.70;99.90
43607;DHT22;29197;44.788;10.366;2023-07-28T13:30:05;33.60;99.90
43607;DHT22;29197;44.788;10.366;2023-07-28T13:32:54;33.50;99.90
43607;DHT22;29197;44.788;10.366;2023-07-28T13:35:44;33.40;99.90
43607;DHT22;29197;44.788;10.366;2023-07-28T13:38:32;33.20;99.90
43607;DHT22;29197;44.788;10.366;2023-07-28T13:41:21;32.90;99.90
43607;DHT22;29197;44.788;10.366;2023-07-28T13:44:09;32.70;99.90
43607;DHT22;29197;44.788;10.366;2023-07-28T13:47:01;32.60;99.90
43607;DHT22;29197;44.788;10.366;2023-07-28T13:49:50;32.80;99.90
43607;DHT22;29197;44.788;10.366;2023-07-28T13:52:40;33.00;99.90
43607;DHT22;29197;44.788;10.366;2023-07-28T13:55:28;33.30;99.90
43607;DHT22;29197;44.788;10.366;2023-07-28T14:01:09;33.80;99.90
43607;DHT22;29197;44.788;10.366;2023-07-28T14:03:57;33.90;99.90
43607;DHT22;29197;44.788;10.366;2023-07-28T14:06:46;33.80;99.90
43607;DHT22;29197;44.788;10.366;2023-07-28T14:12:25;33.20;99.80
43607;DHT22;29197;44.788;10.366;2023-07-28T14:15:14;33.30;99.90
43607;DHT22;29197;44.788;10.366;2023-07-28T14:20:52;33.60;99.90
43607;DHT22;29197;44.788;10.366;2023-07-28T14:23:40;33.80;99.90
43607;DHT22;29197;44.788;10.366;2023-07-28T14:26:30;33.90;99.90
43607;DHT22;29197;44.788;10.366;2023-07-28T14:29:19;34.00;99.90
43607;DHT22;29197;44.788;10.366;2023-07-28T14:32:08;34.20;99.90
43607;DHT22;29197;44.788;10.366;2023-07-28T14:34:56;34.20;99.80
43607;DHT22;29197;44.788;10.366;2023-07-28T14:37:45;34.10;99.90
43607;DHT22;29197;44.788;10.366;2023-07-28T14:40:35;34.00;99.90
43607;DHT22;29197;44.788;10.366;2023-07-28T14:43:25;34.00;99.90
43607;DHT22;29197;44.788;10.366;2023-07-28T14:46:14;34.10;99.90
43607;DHT22;29197;44.788;10.366;2023-07-28T14:49:02;34.00;99.90
43607;DHT22;29197;44.788;10.366;2023-07-28T14:51:51;33.70;99.90
43607;DHT22;29197;44.788;10.366;2023-07-28T14:54:39;33.70;99.90
43607;DHT22;29197;44.788;10.366;2023-07-28T14:57:28;33.80;99.90
43607;DHT22;29197;44.788;10.366;2023-07-28T15:00:22;33.80;99.90
43607;DHT22;29197;44.788;10.366;2023-07-28T15:03:11;33.50;99.90
43607;DHT22;29197;44.788;10.366;2023-07-28T15:06:01;33.30;99.90
43607;DHT22;29197;44.788;10.366;2023-07-28T15:08:49;33.30;99.90
43607;DHT22;29197;44.788;10.366;2023-07-28T15:11:38;33.20;99.90
43607;DHT22;29197;44.788;10.366;2023-07-28T15:14:27;32.70;99.90
43607;DHT22;29197;44.788;10.366;2023-07-28T15:17:17;32.80;99.90
43607;DHT22;29197;44.788;10.366;2023-07-28T15:20:06;33.00;99.90
43607;DHT22;29197;44.788;10.366;2023-07-28T15:22:54;33.10;99.90
43607;DHT22;29197;44.788;10.366;2023-07-28T15:25:43;33.10;99.90
43607;DHT22;29197;44.788;10.366;2023-07-28T15:28:33;33.10;99.90
43607;DHT22;29197;44.788;10.366;2023-07-28T15:31:22;32.90;99.90
43607;DHT22;29197;44.788;10.366;2023-07-28T15:34:12;32.90;99.90
43607;DHT22;29197;44.788;10.366;2023-07-28T15:42:39;32.30;99.90
43607;DHT22;29197;44.788;10.366;2023-07-28T15:45:32;31.90;99.90
43607;DHT22;29197;44.788;10.366;2023-07-28T15:48:21;31.70;99.90
43607;DHT22;29197;44.788;10.366;2023-07-28T15:51:11;31.30;99.90
43607;DHT22;29197;44.788;10.366;2023-07-28T15:53:59;31.10;99.90
43607;DHT22;29197;44.788;10.366;2023-07-28T15:56:49;31.10;99.90
43607;DHT22;29197;44.788;10.366;2023-07-28T15:59:37;30.90;99.90
43607;DHT22;29197;44.788;10.366;2023-07-28T16:02:26;30.90;99.90
43607;DHT22;29197;44.788;10.366;2023-07-28T16:05:15;30.80;99.90
43607;DHT22;29197;44.788;10.366;2023-07-28T16:08:05;30.70;99.90
43607;DHT22;29197;44.788;10.366;2023-07-28T16:10:53;30.60;99.90
43607;DHT22;29197;44.788;10.366;2023-07-28T16:13:42;30.60;99.90
43607;DHT22;29197;44.788;10.366;2023-07-28T16:16:31;30.40;99.90
43607;DHT22;29197;44.788;10.366;2023-07-28T16:19:19;30.40;99.90
43607;DHT22;29197;44.788;10.366;2023-07-28T16:22:08;30.40;99.90
43607;DHT22;29197;44.788;10.366;2023-07-28T16:24:58;30.50;99.90
43607;DHT22;29197;44.788;10.366;2023-07-28T16:27:47;30.30;99.90
43607;DHT22;29197;44.788;10.366;2023-07-28T16:30:36;30.10;99.90
43607;DHT22;29197;44.788;10.366;2023-07-28T16:33:24;30.10;99.90
43607;DHT22;29197;44.788;10.366;2023-07-28T16:36:13;29.90;99.90
43607;DHT22;29197;44.788;10.366;2023-07-28T16:39:01;29.80;99.90
43607;DHT22;29197;44.788;10.366;2023-07-28T16:41:51;29.70;99.90
43607;DHT22;29197;44.788;10.366;2023-07-28T16:44:40;29.60;99.90
43607;DHT22;29197;44.788;10.366;2023-07-28T16:47:29;29.60;99.90
43607;DHT22;29197;44.788;10.366;2023-07-28T16:50:22;29.50;99.90
43607;DHT22;29197;44.788;10.366;2023-07-28T16:53:10;29.50;99.90
43607;DHT22;29197;44.788;10.366;2023-07-28T16:55:59;29.60;99.90
43607;DHT22;29197;44.788;10.366;2023-07-28T16:58:49;29.60;99.90
43607;DHT22;29197;44.788;10.366;2023-07-28T17:01:38;29.70;99.90
43607;DHT22;29197;44.788;10.366;2023-07-28T17:04:27;29.60;99.90
43607;DHT22;29197;44.788;10.366;2023-07-28T17:07:15;29.60;99.90
43607;DHT22;29197;44.788;10.366;2023-07-28T17:10:05;29.50;99.90
43607;DHT22;29197;44.788;10.366;2023-07-28T17:12:54;29.40;99.90
43607;DHT22;29197;44.788;10.366;2023-07-28T17:15:45;29.30;99.90
43607;DHT22;29197;44.788;10.366;2023-07-28T17:18:34;29.40;99.90
43607;DHT22;29197;44.788;10.366;2023-07-28T17:21:22;29.40;99.90
43607;DHT22;29197;44.788;10.366;2023-07-28T17:24:11;29.40;99.90
43607;DHT22;29197;44.788;10.366;2023-07-28T17:26:59;29.40;99.90
43607;DHT22;29197;44.788;10.366;2023-07-28T17:29:48;29.40;99.90
43607;DHT22;29197;44.788;10.366;2023-07-28T17:32:39;29.50;99.90
43607;DHT22;29197;44.788;10.366;2023-07-28T17:35:28;29.40;99.90
43607;DHT22;29197;44.788;10.366;2023-07-28T17:38:16;29.20;99.90
43607;DHT22;29197;44.788;10.366;2023-07-28T17:41:05;29.10;99.90
43607;DHT22;29197;44.788;10.366;2023-07-28T17:43:54;29.10;99.90
43607;DHT22;29197;44.788;10.366;2023-07-28T17:46:42;29.00;99.90
43607;DHT22;29197;44.788;10.366;2023-07-28T17:49:32;29.00;99.90
43607;DHT22;29197;44.788;10.366;2023-07-28T17:52:21;29.00;99.90
43607;DHT22;29197;44.788;10.366;2023-07-28T17:55:10;28.90;99.90
43607;DHT22;29197;44.788;10.366;2023-07-28T17:57:58;29.00;99.90
43607;DHT22;29197;44.788;10.366;2023-07-28T18:00:47;29.00;99.90
43607;DHT22;29197;44.788;10.366;2023-07-28T18:03:36;28.90;99.90
43607;DHT22;29197;44.788;10.366;2023-07-28T18:06:26;28.90;99.90
43607;DHT22;29197;44.788;10.366;2023-07-28T18:09:14;28.80;99.90
43607;DHT22;29197;44.788;10.366;2023-07-28T18:12:03;28.70;99.90
43607;DHT22;29197;44.788;10.366;2023-07-28T18:14:52;28.60;99.90
43607;DHT22;29197;44.788;10.366;2023-07-28T18:17:40;28.50;99.90
43607;DHT22;29197;44.788;10.366;2023-07-28T18:20:29;28.50;99.90
43607;DHT22;29197;44.788;10.366;2023-07-28T18:23:19;28.50;99.90